Time;durP1;ratioP1;P1;durP2;ratioP2;P2;SDS_P1;SDS_P2;PMS_P1;PMS_P2;Temp;Humidity;BMP_temperature;BMP_pressure;BME280_temperature;BME280_humidity;BME280_pressure;Samples;Min_cycle;Max_cycle;Signal;HPM_P1;HPM_P2
2021/06/23 00:02:45;;;;;;;5.87;4.23;;;17.90;99.90;17.20;96536.00;;;;5072231;28;20224;-75
2021/06/23 00:05:35;;;;;;;11.33;4.40;;;17.80;99.90;17.20;96541.00;;;;5073298;28;20200;-75
2021/06/23 00:08:24;;;;;;;9.97;4.57;;;17.70;99.90;17.00;96526.00;;;;5077327;28;20215;-76
2021/06/23 00:11:12;;;;;;;13.90;4.60;;;17.50;99.90;17.00;96538.00;;;;5071661;28;20607;-74
2021/06/23 00:14:02;;;;;;;11.63;4.17;;;17.40;99.90;16.90;96541.00;;;;5080894;28;20234;-74
2021/06/23 00:16:52;;;;;;;8.33;4.97;;;17.40;99.90;17.00;96543.00;;;;5081948;28;20191;-75
2021/06/23 00:19:41;;;;;;;12.30;5.87;;;17.30;99.90;17.20;96551.00;;;;5086132;28;20210;-74
2021/06/23 00:22:31;;;;;;;7.93;3.97;;;17.50;99.90;17.20;96552.00;;;;5087442;28;20246;-75
2021/06/23 00:25:20;;;;;;;8.53;4.30;;;17.30;99.90;17.30;96543.00;;;;5081585;28;20199;-75
2021/06/23 00:28:09;;;;;;;8.13;4.73;;;17.40;99.90;17.50;96543.00;;;;5080281;28;20573;-74
2021/06/23 00:30:58;;;;;;;6.53;3.90;;;17.50;99.90;17.60;96559.00;;;;5074963;28;20220;-75
2021/06/23 00:33:49;;;;;;;12.87;4.83;;;17.60;99.90;17.30;96556.00;;;;5074008;28;20918;-75
2021/06/23 00:36:39;;;;;;;5.87;4.27;;;17.60;99.90;17.00;96557.00;;;;5082125;28;20576;-74
2021/06/23 00:39:29;;;;;;;7.50;4.70;;;17.50;99.90;16.90;96546.00;;;;5065330;28;20203;-74
2021/06/23 00:42:18;;;;;;;12.03;4.03;;;17.40;99.90;16.70;96561.00;;;;5078733;28;20223;-74
2021/06/23 00:45:09;;;;;;;6.80;4.10;;;17.30;99.90;16.60;96557.00;;;;5066799;28;20204;-74
2021/06/23 00:47:58;;;;;;;8.83;4.57;;;17.20;99.90;16.80;96566.00;;;;5083334;28;20218;-74
2021/06/23 00:50:48;;;;;;;8.47;4.43;;;17.10;99.90;17.20;96566.00;;;;5073501;28;20224;-74
2021/06/23 00:53:37;;;;;;;9.65;4.90;;;17.10;99.90;17.30;96557.00;;;;5075901;28;20234;-75
2021/06/23 00:56:33;;;;;;;15.73;5.47;;;17.20;99.90;17.10;96562.00;;;;5072865;28;20175;-74
2021/06/23 00:59:22;;;;;;;7.53;4.03;;;17.30;99.90;16.60;96559.00;;;;5072453;28;20203;-74
2021/06/23 01:02:12;;;;;;;7.63;4.73;;;17.20;99.90;16.20;96562.00;;;;5086399;28;20222;-76
2021/06/23 01:05:01;;;;;;;9.90;4.30;;;17.00;99.90;16.20;96565.00;;;;5075727;28;20200;-74
2021/06/23 01:07:51;;;;;;;5.67;4.20;;;16.80;99.90;16.40;96560.00;;;;5066031;28;20207;-74
2021/06/23 01:10:40;;;;;;;11.10;5.20;;;16.80;99.90;16.50;96563.00;;;;5083284;28;20218;-75
2021/06/23 01:13:36;;;;;;;6.70;4.73;;;16.80;99.90;16.20;96562.00;;;;5084499;28;20219;-74
2021/06/23 01:16:27;;;;;;;13.27;5.47;;;16.70;99.90;15.90;96562.00;;;;5076951;28;20199;-75
2021/06/23 01:19:19;;;;;;;9.70;5.40;;;16.60;99.90;16.10;96564.00;;;;5067027;28;20326;-75
2021/06/23 01:22:10;;;;;;;11.80;5.80;;;16.50;99.90;16.30;96556.00;;;;5076716;28;20261;-74
2021/06/23 01:25:00;;;;;;;9.13;5.83;;;16.50;99.90;16.50;96565.00;;;;5084042;28;20391;-75
2021/06/23 01:27:49;;;;;;;9.37;5.03;;;16.60;99.90;16.50;96560.00;;;;5089426;28;20211;-75
2021/06/23 01:30:38;;;;;;;9.50;5.07;;;16.70;99.90;16.40;96564.00;;;;5089230;28;20199;-75
2021/06/23 01:33:29;;;;;;;8.47;4.60;;;16.70;99.90;16.00;96563.00;;;;5084184;28;20227;-74
2021/06/23 01:36:18;;;;;;;9.90;4.70;;;16.60;99.90;15.90;96559.00;;;;5081696;28;20202;-75
2021/06/23 01:39:08;;;;;;;9.67;5.07;;;16.50;99.90;16.30;96563.00;;;;5071948;28;20590;-73
2021/06/23 01:41:57;;;;;;;9.77;4.70;;;16.50;99.90;16.40;96558.00;;;;5077441;28;20211;-75
2021/06/23 01:44:46;;;;;;;8.43;4.77;;;16.50;99.90;16.50;96552.00;;;;5084105;28;20207;-75
2021/06/23 01:47:35;;;;;;;10.07;5.47;;;16.60;99.90;16.20;96559.00;;;;5084185;28;20203;-75
2021/06/23 01:50:24;;;;;;;8.80;4.90;;;16.60;99.90;16.10;96570.00;;;;5079543;28;20199;-75
2021/06/23 01:53:13;;;;;;;12.10;5.37;;;16.60;99.90;16.20;96580.00;;;;5068064;28;20786;-75
2021/06/23 01:56:03;;;;;;;8.37;6.23;;;16.60;99.90;15.90;96577.00;;;;5081743;28;20212;-75
2021/06/23 01:58:53;;;;;;;11.90;4.97;;;16.40;99.90;16.10;96576.00;;;;5082408;28;20203;-74
2021/06/23 02:01:53;;;;;;;9.10;4.83;;;16.40;99.90;16.30;96583.00;;;;5079291;28;20230;-73
2021/06/23 02:04:52;;;;;;;6.87;5.20;;;16.50;99.90;16.40;96576.00;;;;5069721;28;20211;-74
2021/06/23 02:08:07;;;;;;;7.80;4.57;;;16.50;99.90;16.30;96579.00;;;;5068454;28;20700;-74
2021/06/23 02:11:38;;;;;;;8.60;4.83;;;16.50;99.90;15.80;96583.00;;;;5075001;28;20812;-73
2021/06/23 02:14:48;;;;;;;11.93;4.37;;;16.50;99.90;15.80;96586.00;;;;5055455;28;20238;-74
2021/06/23 02:17:39;;;;;;;14.43;5.63;;;16.70;99.90;15.80;96583.00;;;;5076678;28;20337;-74
2021/06/23 02:20:30;;;;;;;10.10;5.00;;;16.20;99.90;15.80;96588.00;;;;5073679;28;20592;-75
2021/06/23 02:23:22;;;;;;;9.57;4.90;;;16.20;99.90;15.70;96590.00;;;;5088769;28;20207;-74
2021/06/23 02:26:11;;;;;;;10.27;5.47;;;16.20;99.90;15.50;96592.00;;;;5079376;28;20195;-74
2021/06/23 02:29:02;;;;;;;4.77;4.23;;;16.00;99.90;15.40;96593.00;;;;5068247;28;20697;-75
2021/06/23 02:31:53;;;;;;;8.97;5.30;;;16.00;99.90;15.30;96595.00;;;;5080820;28;20724;-75
2021/06/23 02:34:47;;;;;;;11.23;5.10;;;15.90;99.90;15.20;96587.00;;;;5067930;28;20227;-75
2021/06/23 02:37:37;;;;;;;12.67;5.27;;;15.80;99.90;15.20;96587.00;;;;5077249;28;20196;-75
2021/06/23 02:40:26;;;;;;;13.63;4.93;;;15.60;99.90;15.40;96589.00;;;;5075263;28;20199;-75
2021/06/23 02:43:15;;;;;;;13.53;6.10;;;15.60;99.90;15.50;96596.00;;;;5074874;28;20191;-75
2021/06/23 02:46:05;;;;;;;8.83;4.60;;;15.70;99.90;15.50;96604.00;;;;5087757;28;20210;-75
2021/06/23 02:48:55;;;;;;;10.63;5.60;;;15.70;99.90;15.10;96597.00;;;;5078297;28;20210;-74
2021/06/23 02:51:44;;;;;;;13.10;5.67;;;15.70;99.90;14.80;96602.00;;;;5076246;28;20230;-73
2021/06/23 02:54:34;;;;;;;11.70;5.13;;;15.50;99.90;15.20;96606.00;;;;5074733;28;20239;-74
2021/06/23 02:57:23;;;;;;;14.83;5.70;;;15.50;99.90;15.30;96606.00;;;;5086936;28;20571;-74
2021/06/23 03:00:14;;;;;;;8.37;4.83;;;15.50;99.90;15.50;96621.00;;;;5078082;28;20206;-74
2021/06/23 03:03:05;;;;;;;13.27;4.93;;;15.60;99.90;15.50;96612.00;;;;5087081;28;20583;-75
2021/06/23 03:05:54;;;;;;;9.80;5.50;;;15.70;99.90;15.10;96614.00;;;;5087160;28;20203;-73
2021/06/23 03:08:43;;;;;;;10.90;6.57;;;15.70;99.90;15.10;96615.00;;;;5075372;28;20553;-74
2021/06/23 03:11:36;;;;;;;8.47;6.33;;;15.60;99.90;15.20;96605.00;;;;5067523;28;20229;-73
2021/06/23 03:14:24;;;;;;;11.77;5.03;;;15.60;99.90;15.10;96612.00;;;;5066788;28;20614;-74
2021/06/23 03:17:13;;;;;;;11.57;7.00;;;15.50;99.90;14.90;96615.00;;;;5084913;28;20207;-75
2021/06/23 03:20:07;;;;;;;8.53;5.90;;;15.50;99.90;14.70;96613.00;;;;5085518;28;20705;-74
2021/06/23 03:22:56;;;;;;;11.33;5.77;;;15.40;99.90;14.70;96612.00;;;;5078403;28;20207;-74
2021/06/23 03:25:45;;;;;;;12.53;6.37;;;15.30;99.90;14.70;96616.00;;;;5081163;28;20572;-74
2021/06/23 03:28:34;;;;;;;10.73;5.50;;;15.30;99.90;14.80;96613.00;;;;5079469;28;20716;-74
2021/06/23 03:31:23;;;;;;;11.70;5.77;;;15.20;99.90;15.00;96626.00;;;;5080620;28;20227;-73
2021/06/23 03:34:12;;;;;;;7.20;5.27;;;15.30;99.90;15.10;96621.00;;;;5076662;28;20720;-74
2021/06/23 03:37:05;;;;;;;14.80;5.87;;;15.30;99.90;15.00;96631.00;;;;5053350;28;20580;-74
2021/06/23 03:39:53;;;;;;;9.00;5.70;;;15.40;99.90;15.20;96633.00;;;;5066612;28;20218;-74
2021/06/23 03:42:42;;;;;;;11.77;5.83;;;15.40;99.90;15.10;96638.00;;;;5066695;28;20604;-74
2021/06/23 03:45:31;;;;;;;9.87;5.43;;;15.40;99.90;15.10;96642.00;;;;5056072;28;20200;-73
2021/06/23 03:48:20;;;;;;;9.20;5.37;;;15.40;99.90;15.40;96653.00;;;;5065915;28;20203;-74
2021/06/23 03:51:09;;;;;;;12.90;5.03;;;15.40;99.90;15.50;96655.00;;;;5066251;28;20223;-74
2021/06/23 03:53:59;;;;;;;9.73;6.43;;;15.60;99.90;15.50;96652.00;;;;5066647;28;20733;-73
2021/06/23 03:56:48;;;;;;;9.83;5.47;;;15.60;99.90;15.50;96655.00;;;;5055806;28;20192;-73
2021/06/23 03:59:37;;;;;;;10.17;6.00;;;15.70;99.90;15.60;96657.00;;;;5066125;28;20581;-73
2021/06/23 04:02:26;;;;;;;8.40;5.47;;;15.80;99.90;15.50;96657.00;;;;5065156;28;20230;-74
2021/06/23 04:05:15;;;;;;;5.90;5.10;;;15.80;99.90;15.60;96677.00;;;;5058034;28;20215;-75
2021/06/23 04:08:04;;;;;;;12.70;5.40;;;15.80;99.90;15.70;96679.00;;;;5054803;28;20207;-74
2021/06/23 04:10:55;;;;;;;10.03;5.83;;;15.90;99.90;15.70;96683.00;;;;5066031;28;20224;-74
2021/06/23 04:13:44;;;;;;;8.70;5.03;;;15.90;99.90;15.50;96688.00;;;;5066276;28;20226;-74
2021/06/23 04:16:33;;;;;;;12.90;5.60;;;15.90;99.90;15.60;96692.00;;;;5066423;28;20675;-75
2021/06/23 04:19:22;;;;;;;13.70;8.43;;;15.90;99.90;15.80;96698.00;;;;5056001;28;20211;-74
2021/06/23 04:22:11;;;;;;;7.23;5.17;;;16.00;99.90;16.00;96698.00;;;;5049169;28;20224;-75
2021/06/23 04:25:00;;;;;;;9.80;5.70;;;16.10;99.90;16.10;96701.00;;;;5055662;28;20205;-74
2021/06/23 04:27:50;;;;;;;6.30;4.03;;;16.20;99.90;16.20;96702.00;;;;5058370;28;20215;-74
2021/06/23 04:30:39;;;;;;;7.70;5.50;;;16.30;99.90;16.30;96709.00;;;;5064552;28;20686;-74
2021/06/23 04:33:28;;;;;;;8.87;5.67;;;16.40;99.90;16.50;96710.00;;;;5065782;28;21083;-74
2021/06/23 04:36:17;;;;;;;12.23;5.83;;;16.50;99.90;16.70;96710.00;;;;5062569;28;20714;-74
2021/06/23 04:39:05;;;;;;;12.37;6.23;;;16.60;99.90;16.80;96720.00;;;;5062617;28;20204;-74
2021/06/23 04:41:54;;;;;;;13.03;6.63;;;16.80;99.90;16.80;96715.00;;;;5053722;28;20212;-74
2021/06/23 04:44:44;;;;;;;7.73;5.20;;;16.90;99.90;16.80;96719.00;;;;5064929;28;20199;-74
2021/06/23 04:47:33;;;;;;;9.70;4.70;;;17.00;99.90;16.90;96718.00;;;;5063354;28;20693;-73
2021/06/23 04:50:22;;;;;;;10.47;5.43;;;17.00;99.90;17.30;96727.00;;;;5054229;28;20196;-74
2021/06/23 04:53:19;;;;;;;9.07;4.87;;;18.30;99.90;17.40;96730.00;;;;5051135;28;20609;-74
2021/06/23 04:56:08;;;;;;;8.50;5.50;;;17.30;99.90;17.50;96728.00;;;;5063771;28;20235;-74
2021/06/23 04:58:58;;;;;;;10.73;5.63;;;17.40;99.90;17.60;96728.00;;;;5059404;28;20206;-74
2021/06/23 05:01:49;;;;;;;11.87;6.00;;;17.60;99.90;17.80;96729.00;;;;5059024;28;20924;-73
2021/06/23 05:04:39;;;;;;;12.97;6.63;;;17.70;99.90;18.10;96730.00;;;;5069377;28;20255;-73
2021/06/23 05:07:28;;;;;;;8.80;5.13;;;17.90;99.90;18.10;96727.00;;;;5069623;28;20208;-73
2021/06/23 05:10:16;;;;;;;10.17;6.37;;;18.10;99.90;18.10;96733.00;;;;5069357;28;20204;-74
2021/06/23 05:13:05;;;;;;;8.50;5.53;;;18.20;99.90;18.00;96724.00;;;;5064241;28;20192;-74
2021/06/23 05:15:57;;;;;;;12.73;5.67;;;18.30;99.90;18.40;96722.00;;;;5066080;28;20340;-73
2021/06/23 05:18:51;;;;;;;7.83;5.50;;;18.30;99.90;18.60;96733.00;;;;5055922;28;20211;-72
2021/06/23 05:21:39;;;;;;;11.37;5.73;;;18.50;99.90;18.80;96740.00;;;;5069814;28;20223;-73
2021/06/23 05:24:28;;;;;;;7.47;5.60;;;18.70;99.90;18.90;96730.00;;;;5069245;28;20215;-73
2021/06/23 05:27:17;;;;;;;14.63;6.60;;;18.80;99.90;18.90;96735.00;;;;5068464;28;20238;-72
2021/06/23 05:30:08;;;;;;;7.13;5.17;;;18.90;99.90;19.10;96735.00;;;;5069378;28;20197;-73
2021/06/23 05:32:57;;;;;;;10.90;5.27;;;19.10;99.90;19.30;96745.00;;;;5069311;28;20208;-73
2021/06/23 05:35:47;;;;;;;5.97;4.47;;;19.20;99.90;19.50;96755.00;;;;5068703;28;20619;-74
2021/06/23 05:38:36;;;;;;;9.30;5.90;;;19.40;99.90;19.70;96763.00;;;;5055715;28;20215;-76
2021/06/23 05:41:25;;;;;;;12.43;5.27;;;19.50;99.90;19.90;96753.00;;;;5068122;28;20706;-75
2021/06/23 05:44:14;;;;;;;10.90;5.73;;;19.70;99.90;20.30;96754.00;;;;5068746;28;20211;-76
2021/06/23 05:47:03;;;;;;;10.30;6.47;;;19.90;99.90;20.50;96763.00;;;;5067347;28;20223;-75
2021/06/23 05:49:52;;;;;;;12.73;6.23;;;20.10;99.90;20.80;96759.00;;;;5068272;28;20208;-75
2021/06/23 05:52:43;;;;;;;8.40;5.03;;;20.40;99.90;20.90;96766.00;;;;5068728;28;20243;-76
2021/06/23 05:55:31;;;;;;;9.67;6.57;;;20.60;99.90;21.10;96757.00;;;;5069242;28;20227;-75
2021/06/23 05:58:20;;;;;;;15.63;6.10;;;20.80;99.90;21.30;96752.00;;;;5062080;28;20413;-75
2021/06/23 06:01:09;;;;;;;12.03;6.40;;;21.00;99.90;21.40;96757.00;;;;5051827;28;20225;-75
2021/06/23 06:03:58;;;;;;;11.00;6.37;;;21.20;99.90;21.40;96766.00;;;;5059128;28;20201;-76
2021/06/23 06:06:47;;;;;;;11.53;6.27;;;21.30;99.90;21.50;96759.00;;;;5059931;28;20548;-75
2021/06/23 06:09:37;;;;;;;14.43;6.50;;;21.40;99.90;21.70;96759.00;;;;5065828;28;20199;-74
2021/06/23 06:12:26;;;;;;;12.23;5.90;;;21.60;99.90;21.80;96759.00;;;;5066515;28;20223;-75
2021/06/23 06:15:16;;;;;;;10.80;5.47;;;21.70;99.90;21.80;96755.00;;;;5067425;28;20204;-74
2021/06/23 06:18:07;;;;;;;16.33;6.87;;;21.80;99.90;21.90;96763.00;;;;5066859;28;20207;-75
2021/06/23 06:20:57;;;;;;;13.40;6.23;;;21.90;99.90;22.20;96762.00;;;;5068374;28;20228;-74
2021/06/23 06:23:46;;;;;;;14.57;5.80;;;22.00;99.90;22.40;96765.00;;;;5068191;28;20679;-74
2021/06/23 06:26:36;;;;;;;7.87;6.17;;;22.20;99.90;22.70;96758.00;;;;5068817;28;20219;-74
2021/06/23 06:29:25;;;;;;;15.80;6.37;;;22.40;99.90;22.90;96766.00;;;;5057165;28;20197;-74
2021/06/23 06:32:14;;;;;;;11.73;7.33;;;22.60;99.90;23.00;96766.00;;;;5054913;28;20247;-74
2021/06/23 06:35:04;;;;;;;10.80;7.00;;;22.80;99.90;23.20;96766.00;;;;5068217;28;20204;-74
2021/06/23 06:37:55;;;;;;;11.77;6.53;;;22.90;99.90;23.30;96760.00;;;;5067784;28;20204;-74
2021/06/23 06:40:44;;;;;;;18.37;6.30;;;23.10;99.90;23.60;96760.00;;;;5058124;28;20243;-74
2021/06/23 06:43:35;;;;;;;14.03;7.60;;;23.30;99.90;23.80;96769.00;;;;5067959;28;20686;-75
2021/06/23 06:46:25;;;;;;;22.70;7.03;;;23.40;99.90;23.90;96752.00;;;;5067914;28;20203;-74
2021/06/23 06:49:14;;;;;;;10.80;6.10;;;23.60;99.90;24.20;96763.00;;;;5054446;28;20213;-74
2021/06/23 06:52:03;;;;;;;10.83;6.20;;;23.80;99.90;24.50;96782.00;;;;5057139;28;20231;-74
2021/06/23 06:54:52;;;;;;;10.30;5.97;;;24.10;99.90;24.80;96764.00;;;;5067413;28;20580;-74
2021/06/23 06:57:41;;;;;;;13.00;6.13;;;24.30;99.90;25.00;96770.00;;;;5067658;28;20232;-74
2021/06/23 07:00:31;;;;;;;14.00;6.57;;;24.50;99.90;25.10;96771.00;;;;5066569;28;20208;-74
2021/06/23 07:03:20;;;;;;;10.30;5.87;;;24.70;99.90;25.40;96767.00;;;;5060705;28;20262;-75
2021/06/23 07:06:09;;;;;;;15.33;8.10;;;24.90;99.90;25.70;96767.00;;;;5063493;28;20205;-75
2021/06/23 07:08:58;;;;;;;8.07;5.83;;;25.20;99.90;25.90;96766.00;;;;5056886;28;20212;-76
2021/06/23 07:11:48;;;;;;;13.77;5.93;;;25.40;99.90;26.00;96767.00;;;;5061112;28;20224;-76
2021/06/23 07:14:44;;;;;;;9.20;5.97;;;25.60;99.90;26.30;96755.00;;;;5057051;28;20224;-76
2021/06/23 07:17:34;;;;;;;12.03;6.00;;;25.80;99.90;26.50;96761.00;;;;5054414;28;20226;-76
2021/06/23 07:20:23;;;;;;;9.77;5.23;;;26.00;99.90;26.70;96767.00;;;;5058028;28;20214;-76
2021/06/23 07:23:12;;;;;;;12.93;5.77;;;26.20;99.90;26.90;96763.00;;;;5065984;28;20197;-76
2021/06/23 07:26:01;;;;;;;8.80;5.93;;;26.40;99.90;26.90;96760.00;;;;5067235;28;20221;-76
2021/06/23 07:28:50;;;;;;;7.43;5.03;;;26.60;99.90;27.10;96771.00;;;;5066758;28;20237;-76
2021/06/23 07:31:45;;;;;;;15.67;5.80;;;26.70;99.90;27.10;96762.00;;;;5065639;28;20227;-76
2021/06/23 07:37:45;;;;;;;9.77;4.90;;;27.00;99.90;27.40;96772.00;;;;5066170;28;20224;-76
2021/06/23 07:40:45;;;;;;;5.07;4.03;;;27.10;99.90;27.00;96771.00;;;;5056659;28;20202;-76
2021/06/23 07:43:34;;;;;;;9.40;4.70;;;27.20;99.90;27.20;96769.00;;;;5065959;28;20421;-76
2021/06/23 07:46:23;;;;;;;10.50;4.83;;;27.10;98.60;27.40;96771.00;;;;5066443;28;20214;-76
2021/06/23 07:49:17;;;;;;;8.20;4.57;;;27.20;99.80;27.50;96778.00;;;;5064965;28;20202;-76
2021/06/23 07:52:11;;;;;;;11.43;4.90;;;27.30;99.40;27.90;96778.00;;;;5055518;28;20238;-76
2021/06/23 07:55:41;;;;;;;10.93;6.20;;;27.40;98.10;28.10;96778.00;;;;5059754;28;20212;-76
2021/06/23 08:10:53;;;;;;;31.73;8.00;;;28.10;90.90;28.30;96779.00;;;;5066660;28;20223;-76
2021/06/23 08:13:42;;;;;;;11.97;4.40;;;28.20;87.10;28.50;96776.00;;;;5066692;28;20208;-76
2021/06/23 08:16:31;;;;;;;14.50;5.50;;;28.30;84.20;28.40;96779.00;;;;5062053;28;20228;-76
2021/06/23 08:19:21;;;;;;;8.97;4.97;;;28.30;82.60;28.70;96780.00;;;;5054789;28;20574;-76
2021/06/23 08:22:11;;;;;;;44.53;7.20;;;28.40;83.60;28.90;96772.00;;;;5065928;28;20301;-76
2021/06/23 08:25:01;;;;;;;6.27;4.10;;;28.60;80.80;29.10;96777.00;;;;5061247;28;20606;-76
2021/06/23 08:27:52;;;;;;;6.47;4.80;;;28.70;77.40;28.90;96773.00;;;;5055258;28;20224;-77
2021/06/23 08:30:41;;;;;;;7.53;4.57;;;28.70;73.90;29.10;96771.00;;;;5060015;28;20197;-76
2021/06/23 08:33:30;;;;;;;8.77;4.30;;;28.80;75.00;29.40;96777.00;;;;5054048;28;20205;-76
2021/06/23 08:36:19;;;;;;;8.73;3.60;;;28.90;75.50;29.50;96770.00;;;;5060499;28;20198;-76
2021/06/23 08:39:07;;;;;;;9.93;4.10;;;29.00;71.10;29.60;96773.00;;;;5053826;28;20537;-76
2021/06/23 08:41:58;;;;;;;11.60;4.37;;;29.20;69.80;29.80;96781.00;;;;5052385;28;20623;-76
2021/06/23 08:44:47;;;;;;;7.10;4.43;;;29.20;69.60;29.80;96786.00;;;;5069607;28;20281;-76
2021/06/23 08:47:40;;;;;;;7.27;4.30;;;29.40;70.60;30.10;96786.00;;;;5071972;28;20200;-75
2021/06/23 08:50:29;;;;;;;12.73;5.13;;;29.50;71.00;30.10;96797.00;;;;5060501;28;20205;-76
2021/06/23 08:53:17;;;;;;;5.00;4.27;;;29.70;69.00;30.30;96804.00;;;;5058402;28;20200;-77
2021/06/23 08:56:07;;;;;;;9.43;4.87;;;29.80;68.90;30.30;96807.00;;;;5059479;28;20192;-75
2021/06/23 08:58:57;;;;;;;11.10;5.57;;;30.00;66.10;30.10;96810.00;;;;5065361;28;20214;-76
2021/06/23 09:01:47;;;;;;;13.10;4.37;;;30.00;66.80;30.50;96809.00;;;;5071672;28;20222;-75
2021/06/23 09:04:35;;;;;;;9.02;5.32;;;30.00;67.10;30.70;96800.00;;;;5071603;28;20575;-76
2021/06/23 09:07:44;;;;;;;10.63;4.15;;;30.20;66.90;31.00;96797.00;;;;5072694;28;20727;-76
2021/06/23 09:10:36;;;;;;;10.77;4.60;;;30.30;65.40;31.00;96799.00;;;;5058563;28;20210;-74
2021/06/23 09:13:25;;;;;;;8.43;5.05;;;30.50;65.20;31.00;96810.00;;;;5071577;28;20224;-75
2021/06/23 09:16:15;;;;;;;11.43;5.43;;;30.70;65.90;31.20;96808.00;;;;5062228;28;20203;-77
2021/06/23 09:19:28;;;;;;;9.43;4.93;;;30.80;65.70;30.80;96811.00;;;;5070126;28;20656;-76
2021/06/23 09:22:39;;;;;;;11.50;5.65;;;30.80;64.70;30.50;96811.00;;;;5072796;28;20232;-76
2021/06/23 09:25:32;;;;;;;14.68;5.38;;;30.80;63.50;31.20;96816.00;;;;5071571;28;20206;-76
2021/06/23 09:28:20;;;;;;;11.30;5.93;;;30.80;66.10;31.20;96815.00;;;;5071003;28;20230;-76
2021/06/23 09:31:10;;;;;;;9.43;6.03;;;30.80;64.60;30.90;96818.00;;;;5071680;28;20229;-75
2021/06/23 09:34:21;;;;;;;15.20;6.63;;;31.00;67.80;30.60;96819.00;;;;5072805;28;20210;-77
2021/06/23 09:37:29;;;;;;;11.55;5.68;;;30.70;68.70;30.70;96829.00;;;;5060051;28;20225;-75
2021/06/23 09:40:22;;;;;;;11.25;6.00;;;30.70;67.20;31.20;96827.00;;;;5072046;28;20197;-76
2021/06/23 09:43:11;;;;;;;8.90;5.65;;;30.70;68.80;31.50;96825.00;;;;5071692;28;20214;-76
2021/06/23 09:46:01;;;;;;;16.83;6.40;;;30.90;70.10;31.80;96832.00;;;;5069344;28;20205;-76
2021/06/23 09:48:52;;;;;;;8.88;5.53;;;31.10;69.90;31.20;96823.00;;;;5058812;28;20213;-76
2021/06/23 09:51:49;;;;;;;11.70;5.88;;;31.30;67.40;31.40;96825.00;;;;5054857;28;20217;-77
2021/06/23 09:54:51;;;;;;;15.73;5.95;;;31.30;68.60;31.70;96824.00;;;;5061514;28;20217;-77
2021/06/23 09:57:40;;;;;;;9.73;6.90;;;31.30;68.90;31.90;96820.00;;;;5062193;28;20218;-77
2021/06/23 10:00:29;;;;;;;10.95;6.43;;;31.40;68.90;32.30;96827.00;;;;5055846;28;20208;-77
2021/06/23 10:03:18;;;;;;;7.22;5.72;;;31.60;68.80;32.40;96822.00;;;;5065404;28;20218;-77
2021/06/23 10:06:27;;;;;;;9.32;5.65;;;31.70;67.00;32.50;96820.00;;;;5066134;28;20214;-77
2021/06/23 10:09:22;;;;;;;6.63;4.95;;;31.90;67.10;32.70;96824.00;;;;5066768;28;20206;-77
2021/06/23 10:12:11;;;;;;;8.93;5.65;;;32.10;67.40;32.90;96821.00;;;;5067892;28;20230;-76
2021/06/23 10:15:00;;;;;;;13.10;5.95;;;32.30;66.20;31.80;96819.00;;;;5067791;28;20202;-76
2021/06/23 10:17:50;;;;;;;6.90;5.95;;;32.20;65.20;31.80;96824.00;;;;5067716;28;20222;-76
2021/06/23 10:20:40;;;;;;;11.98;5.65;;;32.10;62.50;32.30;96820.00;;;;5053775;28;20214;-76
2021/06/23 10:23:29;;;;;;;10.05;6.60;;;32.00;65.00;31.10;96821.00;;;;5054563;28;20206;-76
2021/06/23 10:26:20;;;;;;;6.10;5.45;;;32.00;61.60;31.60;96814.00;;;;5068029;28;20213;-75
2021/06/23 10:29:10;;;;;;;11.50;5.75;;;31.80;64.10;31.10;96810.00;;;;5067590;28;20220;-74
2021/06/23 10:32:01;;;;;;;9.32;5.13;;;31.70;62.10;32.00;96808.00;;;;5067688;28;20711;-75
2021/06/23 10:34:51;;;;;;;8.20;5.07;;;31.70;63.60;32.60;96815.00;;;;5065837;28;20211;-74
2021/06/23 10:37:41;;;;;;;11.70;4.85;;;31.90;63.80;33.00;96808.00;;;;5060294;28;20243;-75
2021/06/23 10:40:30;;;;;;;7.65;4.50;;;32.10;61.60;33.30;96815.00;;;;5066676;28;20215;-75
2021/06/23 10:43:22;;;;;;;9.77;5.18;;;32.30;62.00;33.20;96816.00;;;;5051384;28;20427;-78
2021/06/23 10:46:11;;;;;;;9.52;5.38;;;32.60;60.00;31.40;96846.00;;;;5054624;28;20210;-74
2021/06/23 10:49:02;;;;;;;15.23;5.57;;;32.50;58.80;31.10;96811.00;;;;5061342;28;20211;-76
2021/06/23 10:51:51;;;;;;;7.90;4.82;;;31.80;60.00;32.10;96800.00;;;;5057252;28;20607;-75
2021/06/23 10:54:41;;;;;;;9.30;5.63;;;31.90;63.10;31.60;96802.00;;;;5064675;28;20684;-74
2021/06/23 10:57:32;;;;;;;10.40;5.60;;;32.00;60.90;30.70;96834.00;;;;5066995;28;20674;-74
2021/06/23 11:00:33;;;;;;;6.57;4.95;;;31.60;60.60;31.50;96791.00;;;;5053331;28;20197;-75
2021/06/23 11:03:21;;;;;;;8.98;5.40;;;31.40;63.00;32.40;96786.00;;;;5055330;28;20201;-75
2021/06/23 11:06:10;;;;;;;6.78;5.68;;;31.60;63.70;33.10;96790.00;;;;5068175;28;20591;-75
2021/06/23 11:09:22;;;;;;;9.55;6.13;;;32.00;64.60;31.80;96831.00;;;;5066514;28;20209;-74
2021/06/23 11:12:11;;;;;;;11.95;6.07;;;31.90;62.30;30.70;96832.00;;;;5067542;28;20221;-73
2021/06/23 11:15:13;;;;;;;8.63;5.47;;;31.60;62.60;30.60;96779.00;;;;5067711;28;20233;-75
2021/06/23 11:20:58;;;;;;;10.48;5.38;;;31.20;64.00;32.30;96767.00;;;;5098615;27;20597;-76
2021/06/23 11:23:59;;;;;;;8.38;5.65;;;31.50;64.10;31.70;96765.00;;;;5102235;28;20613;-77
2021/06/23 11:26:57;;;;;;;16.55;6.25;;;31.80;63.50;33.30;96751.00;;;;5102835;28;20210;-77
2021/06/23 11:29:47;;;;;;;10.73;5.97;;;32.00;63.70;33.90;96763.00;;;;5088905;28;20202;-78
2021/06/23 11:32:36;;;;;;;9.50;4.70;;;32.60;63.80;34.40;96759.00;;;;5093284;28;20752;-77
2021/06/23 11:35:25;;;;;;;8.45;5.65;;;33.00;62.20;34.90;96752.00;;;;5089629;28;20198;-76
2021/06/23 11:38:15;;;;;;;10.98;5.20;;;33.50;62.10;33.90;96766.00;;;;5122257;28;20196;-76
2021/06/23 11:41:07;;;;;;;7.65;5.18;;;33.60;58.50;34.60;96758.00;;;;5118713;27;20608;-76
2021/06/23 11:43:56;;;;;;;12.13;5.53;;;33.80;59.40;34.40;96769.00;;;;5112991;28;20226;-77
2021/06/23 11:46:45;;;;;;;6.70;5.10;;;33.90;58.50;35.10;96796.00;;;;5118996;28;20198;-78
2021/06/23 11:49:36;;;;;;;12.15;7.32;;;34.10;58.30;33.30;96757.00;;;;5119313;28;20201;-77
2021/06/23 11:52:24;;;;;;;10.35;6.47;;;34.00;56.60;33.30;96756.00;;;;5123666;27;20214;-75
2021/06/23 11:55:24;;;;;;;9.18;4.85;;;33.70;57.30;33.30;96810.00;;;;5091623;28;20198;-77
2021/06/23 11:58:13;;;;;;;8.00;4.93;;;33.40;58.60;33.10;96817.00;;;;5103503;28;20195;-77
2021/06/23 12:01:02;;;;;;;9.45;5.75;;;33.10;58.80;33.20;96808.00;;;;5100014;28;20230;-75
2021/06/23 12:03:54;;;;;;;9.10;5.20;;;33.00;59.10;33.70;96751.00;;;;5123123;28;20212;-78
2021/06/23 12:06:43;;;;;;;7.88;5.28;;;33.10;59.30;34.30;96761.00;;;;5123832;28;20208;-77
2021/06/23 12:09:32;;;;;;;8.80;4.95;;;33.40;59.70;34.70;96758.00;;;;5123404;28;20213;-77
2021/06/23 12:12:22;;;;;;;10.48;4.80;;;33.60;58.60;34.70;96757.00;;;;5113402;27;20261;-78
2021/06/23 12:15:13;;;;;;;7.68;4.15;;;34.00;57.40;34.50;96758.00;;;;5112156;28;20212;-78
2021/06/23 12:18:05;;;;;;;11.48;5.25;;;34.00;57.10;35.50;96770.00;;;;5123739;28;20227;-78
2021/06/23 12:20:54;;;;;;;6.45;4.30;;;34.30;56.70;35.10;96800.00;;;;5111106;28;20226;-78
2021/06/23 12:23:43;;;;;;;5.70;4.32;;;34.40;55.40;36.00;96784.00;;;;5117717;28;20218;-77
2021/06/23 12:26:32;;;;;;;4.75;4.05;;;34.70;56.00;33.90;96757.00;;;;5121618;28;20197;-78
2021/06/23 12:29:22;;;;;;;6.60;4.32;;;34.80;53.50;34.50;96755.00;;;;5122865;28;20206;-77
2021/06/23 12:32:11;;;;;;;7.20;4.82;;;34.70;53.90;34.10;96734.00;;;;5109089;28;20226;-79
2021/06/23 12:35:03;;;;;;;7.78;4.60;;;34.40;53.20;35.30;96739.00;;;;5108425;28;20209;-79
2021/06/23 12:37:52;;;;;;;6.90;4.30;;;34.40;54.30;36.10;96762.00;;;;5117212;28;20202;-80
2021/06/23 12:40:43;;;;;;;6.85;4.18;;;34.70;54.60;36.50;96741.00;;;;5113471;28;20237;-80
2021/06/23 12:43:32;;;;;;;5.25;3.67;;;35.10;54.00;37.00;96732.00;;;;5118729;28;20254;-78
2021/06/23 12:46:22;;;;;;;7.45;3.92;;;35.50;53.80;36.90;96749.00;;;;5113091;28;20210;-79
2021/06/23 12:49:11;;;;;;;4.57;3.85;;;35.80;52.50;37.10;96743.00;;;;5097092;28;20279;-79
2021/06/23 12:52:00;;;;;;;7.80;4.65;;;36.10;52.80;36.80;96745.00;;;;5103308;28;20214;-79
2021/06/23 12:54:49;;;;;;;16.10;5.53;;;36.20;51.20;37.10;96740.00;;;;5109327;28;20209;-78